WEATHER

Warnervale Skycam

North West View

North West View

South West View

South West View

Sydney Airport Forecast

  • YSSY TAF

    TAF AMD YSSY 210105Z 2101/2206 03012KT 8000 FU NSC FM210300 04018G28KT 8000 FU NSC FM211000 02012KT 8000 FU FEW018 FM211500 32005KT 8000 FU FEW015 FM211900 18018G28KT 8000 FU FEW010 FM220300 14014KT 8000 FU SCT015 PROB30 2101/2110 5000 FU PROB30 2110/2203 3000 FU FEW010 PROB30 2203/2206 5000 FU SCT015 RMK FM210600 MOD TURB BLW 5000FT TL220300 T 27 27 25 23 Q 1013 1010 1008 1008

  • YSSY METAR

    TTF METAR YSSY 210500Z 05022KT 8000 NSC 26/18 Q1009 RMK RF00.0/000.0 FU/HZ NOSIG

All information provided on this page is for general information and should NOT be used for flight planning.